x

Gulf Of Maine - 78 Nm East Of Portsmouth, Nh (44005) Wave Buoy

4:50 - Thu 29th Jan 2015 All times are EST. -5 hours from GMT.

  • Sig Wave height 4.6ft
  • Peak Period 5s
  • Average Period 5s
  • Wind
    16mph, 20mph gusts
  • Sea Temp 44°f
  • Luft Temp 26°f
  • Sea Pressure 1023.3mb
  • Gulf Of Maine - 78 Nm East Of Portsmouth, Nh
  • Gulf Of Maine - 78 Nm East Of Portsmouth, Nh

More Historic Weather Station data

Upgrade to MSW Pro to gain access to the past 30 days of data for over 8000 Wavebouys and Weather Stations around the globe.

Join Pro

Comparision Forecast

View Surf forecast
   
Do 01/29 4:50 4.5ft 5s 5s 16 20 mph 1023.3mb 44f 26f
3:50 5ft 5s 5s 20 25 mph 1023.4mb 44f 26f
2:50 5.5ft 5s 5s 20 25 mph 1023.6mb 44f 25f
1:50 5.5ft 6s 5s 20 27 mph 1022.9mb 44f 25f
12:50 6ft 11s 6s 18 25 mph 1022.2mb 44f 24f
Mi 01/28 11:50 6.5ft 5s 5s 18 22 mph 1021.7mb 44f 24f
10:50 7ft 6s 5s 20 25 mph 1020.9mb 44f 24f
9:50 7ft 6s 5s 20 25 mph 1019.7mb 44f 26f
8:50  -   -   -  22 29 mph 1018.9mb 44f 25f
7:50 8ft 6s 5s 22 29 mph 1018.2mb 44f 26f
6:50 8.5ft 6s 6s 25 31 mph 1016.7mb 44f 25f
5:50 8ft 11s 6s 25 31 mph 1015.5mb 44f 25f
4:50  -   -   -  25
mph
- - 25f
3:50  -   -   -  22 27 mph 1013.5mb 44f 24f
2:50 8.5ft 7s 6s 20 27 mph 1012.3mb 44f 24f
1:50  -   -   -  20 27 mph 1011.5mb 44f 23f
12:50 10.5ft 8s 6s 22 27 mph 1011.1mb 44f 22f
11:50 10ft 8s 6s 22 31 mph 1010.9mb 44f 22f
10:50  -   -   -  25 31 mph 1010.5mb 44f 22f
8:50 12.5ft 10s 7s 25 31 mph 1008.1mb 44f 23f
7:50  -   -   -  27
mph
- - 23f
6:50  -   -   -  29
mph
1004.6mb - 23f
5:50  -   -   -  29
mph
1003.1mb - 24f
4:50  -   -   -  34
mph
- - 24f
3:50  -   -   -  36
mph
- - 24f
2:50  -   -   -  36
mph
- - -
12:50  -   -   -  38
mph
995.6mb - 24f
Di 01/27 9:50  -   -   -  43 51 mph 992.3mb 45f 25f
7:50  -   -   -  43 54 mph 991.2mb 45f 25f
6:50  -   -   -  45 54 mph 990.5mb 45f 26f
5:50  -   -   -  47
mph
989.4mb 45f 26f
4:50 36ft 13s 10s 47 60 mph 988.5mb 45f 27f
3:50 38ft 12s 10s 47 56 mph 988mb 45f 27f
2:50  -   -   -  47
mph
- - 27f
11:50  -   -   -  47
mph
- - -
10:50  -   -   -  47
mph
- - 26f
8:50 32ft 11s 9s 45 58 mph 995.7mb 45f 26f
6:50  -   -   -  45 56 mph - 45f 25f
5:50 29.5ft 11s 9s 49 63 mph 997.8mb 45f 25f
4:50 26.5ft 10s 8s 47 58 mph 997.7mb 45f 28f
3:50 23ft 10s 8s 47 56 mph 1000.8mb 45f 29f
2:50 19.5ft 9s 7s 47 56 mph 1003.3mb 45f 29f
1:50 16ft 8s 7s 43 51 mph 1006.1mb 45f 29f
12:50 15.5ft 8s 7s 40 49 mph 1008.8mb 45f 29f
Mo 01/26 11:50 11.5ft 8s 6s 38 47 mph 1010.6mb 45f 29f
10:50 9.5ft 7s 5s 36 45 mph 1013mb 45f 31f
9:50 9ft 6s 5s 34 43 mph 1015.4mb 45f 31f
8:50 7.5ft 6s 5s 31 40 mph 1017.2mb 45f 30f
7:50 6ft 5s 5s 27 38 mph 1018.4mb 45f 29f
6:50 6ft 10s 5s 25 31 mph 1019.3mb 45f 28f
5:50 5ft 10s 5s 25 29 mph 1019.6mb 45f 27f
4:50 4.5ft 10s 5s 22 27 mph 1019.2mb 45f 27f
3:50 4.5ft 11s 5s 20 29 mph 1019.1mb 45f 26f
2:50 4ft 11s 5s 18 22 mph 1019.6mb 45f 25f
1:50 4ft 11s 5s 16 22 mph 1020.2mb 45f 24f
12:50 4ft 5s 5s 16 20 mph 1020mb 45f 22f
11:50 3.5ft 12s 5s 16 22 mph 1020.9mb 45f 22f
10:50 4ft 12s 5s 16 22 mph 1022.1mb 45f 22f
9:50 4ft 12s 5s 16 20 mph 1021.9mb 45f 21f
8:50 4.5ft 12s 6s 13 18 mph 1021.7mb 45f 21f
7:50 5ft 11s 5s 13 18 mph 1021.2mb 45f 20f
6:50 6ft 11s 5s 16 25 mph 1020.2mb 45f 21f
5:50 6.5ft 11s 6s 20 29 mph - 45f 21f
4:50 6.5ft 11s 5s 20 25 mph 1018.2mb 45f 22f
3:50 7ft 6s 5s 18 25 mph - 45f 23f
2:50 7.5ft 6s 5s 20 27 mph 1016.8mb 45f 23f
1:50 8ft 6s 5s 25 31 mph 1016.7mb 45f 23f
12:50 7.5ft 6s 5s 25 31 mph 1015.5mb 45f 22f
So 01/25 11:50 7ft 6s 5s 27 31 mph 1014.8mb 45f 23f
10:50 8ft 6s 5s 27 36 mph 1014mb 45f 24f
9:50  -   -   -  27 34 mph 1012.9mb 45f 26f
8:50 8ft 6s 5s 27 34 mph 1011.4mb 45f 27f
7:50  -   -   -  27
mph
- - -
6:50 9ft 13s 6s 27 34 mph 1008.3mb 45f 31f
5:50  -   -   -  25 31 mph 1007mb 45f 32f
4:50  -   -   -  27 36 mph 1004.8mb 45f 33f
3:50 9.5ft 12s 6s 29 34 mph 1002.8mb 45f 34f
2:50 10.5ft 12s 6s 27 34 mph 1001.3mb 45f 35f
1:50  -   -   -  27 34 mph 1000mb 45f 35f
12:50  -   -   -  27 34 mph 999mb 45f 38f
11:50 10ft 14s 6s 29 36 mph 998mb 45f 38f